createdAt,value
2023-04-16T00:00:20.742Z,4.05
2023-04-16T00:02:49.830Z,4.17
2023-04-16T00:05:19.132Z,4.07
2023-04-16T00:07:48.440Z,3.91
2023-04-16T00:10:17.331Z,4.01
2023-04-16T00:12:46.822Z,3.86
2023-04-16T00:15:16.350Z,3.85
2023-04-16T00:17:47.789Z,3.78
2023-04-16T00:20:17.076Z,3.73
2023-04-16T00:22:46.165Z,3.70
2023-04-16T00:25:15.375Z,3.76
2023-04-16T00:27:44.570Z,3.76
2023-04-16T00:30:14.078Z,3.78
2023-04-16T00:32:43.490Z,4.09
2023-04-16T00:35:13.997Z,4.12
2023-04-16T00:42:07.505Z,4.07
2023-04-16T00:44:37.512Z,3.97
2023-04-16T00:51:21.885Z,3.91
2023-04-16T00:53:51.071Z,3.94
2023-04-16T00:56:20.689Z,4.07
2023-04-16T01:03:08.131Z,4.16
2023-04-16T01:05:38.252Z,4.18
2023-04-16T01:12:34.714Z,4.07
2023-04-16T01:15:04.015Z,4.05
2023-04-16T01:17:33.063Z,4.12
2023-04-16T01:20:02.513Z,4.05
2023-04-16T01:33:51.842Z,4.09
2023-04-16T01:36:20.935Z,4.33
2023-04-16T01:38:50.548Z,4.25
2023-04-16T01:41:19.846Z,4.42
2023-04-16T01:43:50.163Z,4.56
2023-04-16T01:46:22.553Z,4.52
2023-04-16T01:53:05.480Z,4.29
2023-04-16T01:55:35.710Z,4.24
2023-04-16T02:02:13.026Z,4.10
2023-04-16T02:04:42.620Z,4.13
2023-04-16T02:07:12.232Z,4.07
2023-04-16T02:09:42.746Z,4.03
2023-04-16T02:12:13.006Z,4.06
2023-04-16T02:14:42.370Z,4.04
2023-04-16T02:17:13.111Z,4.09
2023-04-16T02:19:42.191Z,4.33
2023-04-16T02:22:11.607Z,4.32
2023-04-16T02:24:42.852Z,4.21
2023-04-16T02:27:12.558Z,4.28
2023-04-16T02:29:41.652Z,4.16
2023-04-16T02:32:12.221Z,4.18
2023-04-16T02:34:41.877Z,4.27
2023-04-16T02:37:11.175Z,4.38
2023-04-16T02:39:40.270Z,4.30
2023-04-16T02:42:09.267Z,4.30
2023-04-16T02:48:58.762Z,4.25
2023-04-16T02:51:27.891Z,4.16
2023-04-16T02:58:14.688Z,4.26
2023-04-16T03:00:43.780Z,4.37
2023-04-16T03:07:32.253Z,4.39
2023-04-16T03:14:14.276Z,4.20
2023-04-16T03:16:43.685Z,4.22
2023-04-16T03:23:38.604Z,4.11
2023-04-16T03:26:08.103Z,4.12
2023-04-16T03:31:45.011Z,4.21
2023-04-16T03:38:39.106Z,4.14
2023-04-16T03:41:08.301Z,3.92
2023-04-16T03:43:40.267Z,3.84
2023-04-16T03:46:09.667Z,3.73
2023-04-16T03:48:38.860Z,3.65
2023-04-16T03:51:08.159Z,3.61
2023-04-16T03:53:38.577Z,3.64
2023-04-16T04:00:26.057Z,3.55
2023-04-16T04:02:55.517Z,3.51
2023-04-16T04:09:50.366Z,3.54
2023-04-16T04:12:19.562Z,3.57
2023-04-16T04:19:00.552Z,3.61
2023-04-16T04:25:56.845Z,3.81
2023-04-16T04:28:27.339Z,3.87
2023-04-16T04:35:15.210Z,3.91
2023-04-16T04:37:44.289Z,3.96
2023-04-16T04:44:33.685Z,3.98
2023-04-16T04:47:02.982Z,3.88
2023-04-16T04:49:33.517Z,3.86
2023-04-16T04:56:12.754Z,3.83
2023-04-16T04:58:42.586Z,3.74
2023-04-16T05:05:26.373Z,3.80
2023-04-16T05:07:56.561Z,3.81
2023-04-16T05:10:26.268Z,3.88
2023-04-16T05:12:55.362Z,3.98
2023-04-16T05:15:24.660Z,3.92
2023-04-16T05:17:54.018Z,4.04
2023-04-16T05:20:25.538Z,3.99
2023-04-16T05:22:55.639Z,3.95
2023-04-16T05:25:25.151Z,4.24
2023-04-16T05:31:59.998Z,4.45
2023-04-16T05:34:29.800Z,4.57
2023-04-16T05:41:18.474Z,4.82
2023-04-16T05:43:47.469Z,4.90
2023-04-16T05:50:36.450Z,5.16
2023-04-16T05:57:18.879Z,5.44
2023-04-16T05:59:48.078Z,5.54
2023-04-16T06:06:37.790Z,5.60
2023-04-16T06:09:06.669Z,5.72
2023-04-16T06:11:36.547Z,5.82
2023-04-16T06:14:07.324Z,5.98
2023-04-16T06:16:36.837Z,5.86
2023-04-16T06:19:06.126Z,5.97
2023-04-16T06:21:35.106Z,5.99
2023-04-16T06:24:04.102Z,5.91
2023-04-16T06:26:33.298Z,6.10
2023-04-16T06:29:02.901Z,6.11
2023-04-16T06:31:34.005Z,6.34
2023-04-16T06:34:03.039Z,6.36
2023-04-16T06:36:32.137Z,6.31
2023-04-16T06:39:01.335Z,6.47
2023-04-16T06:41:30.315Z,6.44
2023-04-16T06:48:19.918Z,6.57
2023-04-16T06:50:49.921Z,6.91
2023-04-16T06:57:43.217Z,7.14
2023-04-16T07:00:13.341Z,7.13
2023-04-16T07:07:02.732Z,6.74
2023-04-16T07:09:32.033Z,7.02
2023-04-16T07:12:01.122Z,7.02
2023-04-16T07:14:33.809Z,7.08
2023-04-16T07:17:03.108Z,7.14
2023-04-16T07:23:58.742Z,7.17
2023-04-16T07:26:27.641Z,7.25
2023-04-16T07:33:15.385Z,6.99
2023-04-16T07:35:45.699Z,7.19
2023-04-16T07:42:29.475Z,6.94
2023-04-16T07:49:24.092Z,6.70
2023-04-16T07:51:53.387Z,6.74
2023-04-16T07:58:36.133Z,6.98
2023-04-16T08:01:06.463Z,7.24
2023-04-16T08:07:47.445Z,7.87
2023-04-16T08:14:43.993Z,8.09
2023-04-16T08:17:13.409Z,7.99
2023-04-16T08:24:02.368Z,7.72
2023-04-16T08:26:31.901Z,7.71
2023-04-16T08:33:20.578Z,7.82
2023-04-16T08:35:49.776Z,7.96
2023-04-16T08:38:18.654Z,8.20
2023-04-16T08:40:48.065Z,8.13
2023-04-16T08:43:18.595Z,7.84
2023-04-16T08:45:49.939Z,8.19
2023-04-16T08:48:21.801Z,7.95
2023-04-16T08:50:55.457Z,8.07
2023-04-16T08:53:29.103Z,8.30
2023-04-16T08:56:00.549Z,8.44
2023-04-16T08:58:32.618Z,8.55
2023-04-16T09:01:01.706Z,8.70
2023-04-16T09:03:36.202Z,8.45
2023-04-16T09:06:06.755Z,8.53
2023-04-16T09:08:38.611Z,8.56
2023-04-16T09:11:08.218Z,8.76
2023-04-16T09:13:37.622Z,8.83
2023-04-16T09:16:08.433Z,8.80
2023-04-16T09:18:38.985Z,8.78
2023-04-16T09:21:12.184Z,8.60
2023-04-16T09:23:41.566Z,8.50
2023-04-16T09:26:10.984Z,8.54
2023-04-16T09:28:44.882Z,8.44
2023-04-16T09:31:15.436Z,8.46
2023-04-16T09:33:48.396Z,8.42
2023-04-16T09:36:25.562Z,8.56
2023-04-16T09:38:57.425Z,8.29
2023-04-16T09:41:56.539Z,8.26
2023-04-16T09:48:51.359Z,8.62
2023-04-16T09:51:20.658Z,8.71
2023-04-16T09:53:54.256Z,8.66
2023-04-16T09:56:26.935Z,8.43
2023-04-16T09:59:00.009Z,8.54
2023-04-16T10:01:29.588Z,8.52
2023-04-16T10:04:01.070Z,8.54
2023-04-16T10:06:31.615Z,8.84
2023-04-16T10:09:00.496Z,9.07
2023-04-16T10:11:29.995Z,9.13
2023-04-16T10:13:59.093Z,9.11
2023-04-16T10:16:29.542Z,9.02
2023-04-16T10:19:00.665Z,9.32
2023-04-16T10:25:48.409Z,8.98
2023-04-16T10:28:18.230Z,8.88
2023-04-16T10:35:17.762Z,8.81
2023-04-16T10:37:47.779Z,8.99
2023-04-16T10:44:33.806Z,10.08
2023-04-16T10:51:32.709Z,11.51
2023-04-16T10:54:06.310Z,11.26
2023-04-16T11:00:54.267Z,11.81
2023-04-16T11:03:24.161Z,11.69
2023-04-16T11:10:15.538Z,9.97
2023-04-16T11:12:45.430Z,9.87
2023-04-16T11:15:15.759Z,9.79
2023-04-16T11:17:46.555Z,9.70
2023-04-16T11:20:20.199Z,9.34
2023-04-16T11:22:50.309Z,9.43
2023-04-16T11:25:23.528Z,9.37
2023-04-16T11:27:53.421Z,9.51
2023-04-16T11:30:30.595Z,9.57
2023-04-16T11:33:00.660Z,9.81
2023-04-16T11:35:30.004Z,10.23
2023-04-16T11:37:59.512Z,10.58
2023-04-16T11:40:33.422Z,9.78
2023-04-16T11:43:04.351Z,9.74
2023-04-16T11:45:33.427Z,9.75
2023-04-16T11:48:02.764Z,9.70
2023-04-16T11:50:32.153Z,9.76
2023-04-16T11:57:15.914Z,9.85
2023-04-16T12:00:01.569Z,10.16
2023-04-16T12:07:09.735Z,10.35
2023-04-16T12:09:40.682Z,10.09
2023-04-16T12:16:29.985Z,10.81
2023-04-16T12:19:04.274Z,10.85
2023-04-16T12:21:43.917Z,10.97
2023-04-16T12:24:14.143Z,11.11
2023-04-16T12:30:53.425Z,11.59
2023-04-16T12:37:43.615Z,11.04
2023-04-16T12:40:13.112Z,10.76
2023-04-16T12:47:00.456Z,10.01
2023-04-16T12:49:30.166Z,10.04
2023-04-16T12:56:25.733Z,10.08
2023-04-16T13:03:13.831Z,9.84
2023-04-16T13:05:42.762Z,9.82
2023-04-16T13:12:33.074Z,9.99
2023-04-16T13:15:01.993Z,9.98
2023-04-16T13:17:31.505Z,10.08
2023-04-16T13:20:00.869Z,10.14
2023-04-16T13:26:54.369Z,11.06
2023-04-16T13:29:25.411Z,10.97
2023-04-16T13:31:54.767Z,11.17
2023-04-16T13:34:24.612Z,11.25
2023-04-16T13:36:57.187Z,11.47
2023-04-16T13:39:27.105Z,11.72
2023-04-16T13:41:56.612Z,11.55
2023-04-16T13:48:40.261Z,13.01
2023-04-16T13:51:09.772Z,12.09
2023-04-16T13:57:53.100Z,11.25
2023-04-16T14:00:22.718Z,10.87
2023-04-16T14:02:52.443Z,10.85
2023-04-16T14:05:27.004Z,10.85
2023-04-16T14:12:15.515Z,10.89
2023-04-16T14:23:12.749Z,10.76
2023-04-16T14:25:41.925Z,10.75
2023-04-16T14:28:11.024Z,10.63
2023-04-16T14:30:40.426Z,10.65
2023-04-16T14:33:09.422Z,10.28
2023-04-16T14:35:38.406Z,10.27
2023-04-16T14:38:07.825Z,10.35
2023-04-16T14:44:51.567Z,10.12
2023-04-16T14:47:21.074Z,10.17
2023-04-16T14:54:08.626Z,10.02
2023-04-16T14:56:37.847Z,10.00
2023-04-16T15:03:28.138Z,9.70
2023-04-16T15:10:16.212Z,9.90
2023-04-16T15:12:45.410Z,10.03
2023-04-16T15:23:58.880Z,10.04
2023-04-16T15:30:48.400Z,9.85
2023-04-16T15:33:17.986Z,9.78
2023-04-16T15:40:08.305Z,9.76
2023-04-16T15:42:37.501Z,9.65
2023-04-16T15:49:32.420Z,9.38
2023-04-16T15:52:02.337Z,9.33
2023-04-16T15:54:32.075Z,9.30
2023-04-16T15:57:02.676Z,9.37
2023-04-16T15:59:31.874Z,9.45
2023-04-16T16:02:01.553Z,9.32
2023-04-16T16:04:34.834Z,9.18
2023-04-16T16:07:04.978Z,9.23
2023-04-16T16:09:34.293Z,9.27
2023-04-16T16:12:05.134Z,9.23
2023-04-16T16:14:34.945Z,9.14
2023-04-16T16:17:04.419Z,9.29
2023-04-16T16:19:34.656Z,9.25
2023-04-16T16:22:03.751Z,9.35
2023-04-16T16:24:32.850Z,9.14
2023-04-16T16:27:02.451Z,9.18
2023-04-16T16:29:33.287Z,9.09
2023-04-16T16:32:02.516Z,8.99
2023-04-16T16:34:32.092Z,8.97
2023-04-16T16:41:07.757Z,8.81
2023-04-16T16:43:37.261Z,8.74
2023-04-16T16:50:26.051Z,8.61
2023-04-16T16:52:55.442Z,8.52
2023-04-16T16:58:32.324Z,8.42
2023-04-16T17:05:07.908Z,8.33
2023-04-16T17:07:39.161Z,8.22
2023-04-16T17:10:11.436Z,8.21
2023-04-16T17:16:52.380Z,8.14
2023-04-16T17:19:21.825Z,8.07
2023-04-16T17:26:10.410Z,8.03
2023-04-16T17:28:39.598Z,8.03
2023-04-16T17:35:34.010Z,7.90
2023-04-16T17:42:23.197Z,7.71
2023-04-16T17:44:52.806Z,7.65
2023-04-16T17:51:47.729Z,7.43
2023-04-16T17:54:17.035Z,7.41
2023-04-16T18:01:06.363Z,7.27
2023-04-16T18:07:48.830Z,7.17
2023-04-16T18:10:18.157Z,7.05
2023-04-16T18:17:03.564Z,6.99
2023-04-16T18:19:34.091Z,6.86
2023-04-16T18:26:23.302Z,6.71
2023-04-16T18:28:52.560Z,6.67
2023-04-16T18:31:22.283Z,6.52
2023-04-16T18:38:11.144Z,6.30
2023-04-16T18:40:40.866Z,6.39
2023-04-16T18:47:36.735Z,6.02
2023-04-16T18:50:06.319Z,6.24
2023-04-16T18:56:43.111Z,6.08
2023-04-16T18:59:12.553Z,6.00
2023-04-16T19:01:42.026Z,5.96
2023-04-16T19:08:23.634Z,6.19
2023-04-16T19:10:53.031Z,6.18
2023-04-16T19:17:42.258Z,5.92
2023-04-16T19:20:13.153Z,5.73
2023-04-16T19:27:01.329Z,5.71
2023-04-16T19:29:34.106Z,5.66
2023-04-16T19:32:03.837Z,5.67
2023-04-16T19:34:34.451Z,5.58
2023-04-16T19:37:03.332Z,5.61
2023-04-16T19:39:32.937Z,5.61
2023-04-16T19:42:02.392Z,5.68
2023-04-16T19:44:32.766Z,5.68
2023-04-16T19:47:02.228Z,5.68
2023-04-16T19:53:44.912Z,5.59
2023-04-16T19:56:14.213Z,5.62
2023-04-16T20:02:56.179Z,5.69
2023-04-16T20:10:11.102Z,5.66
2023-04-16T20:12:40.312Z,5.75
2023-04-16T20:15:10.840Z,5.78
2023-04-16T20:17:42.635Z,5.74
2023-04-16T20:20:13.639Z,5.81
2023-04-16T20:22:44.714Z,5.80
2023-04-16T20:25:19.925Z,5.91
2023-04-16T20:27:49.531Z,5.91
2023-04-16T20:34:38.310Z,5.92
2023-04-16T20:37:07.591Z,5.94
2023-04-16T20:44:05.910Z,6.19
2023-04-16T20:46:36.777Z,6.29
2023-04-16T20:53:20.504Z,6.46
2023-04-16T20:55:49.706Z,6.29
2023-04-16T20:58:18.793Z,6.33
2023-04-16T21:00:56.264Z,6.22
2023-04-16T21:03:26.134Z,6.14
2023-04-16T21:05:57.132Z,5.95
2023-04-16T21:08:26.229Z,6.00
2023-04-16T21:10:55.740Z,6.13
2023-04-16T21:13:25.342Z,6.10
2023-04-16T21:15:56.827Z,6.01
2023-04-16T21:18:27.623Z,6.23
2023-04-16T21:21:01.224Z,6.07
2023-04-16T21:23:32.267Z,6.17
2023-04-16T21:26:02.585Z,6.11
2023-04-16T21:28:31.878Z,6.18
2023-04-16T21:31:06.143Z,6.29
2023-04-16T21:33:35.600Z,6.17
2023-04-16T21:36:04.679Z,6.17
2023-04-16T21:38:34.119Z,6.04
2023-04-16T21:41:03.829Z,6.05
2023-04-16T21:43:33.514Z,6.03
2023-04-16T21:46:04.449Z,6.05
2023-04-16T21:48:33.444Z,6.04
2023-04-16T21:51:07.006Z,6.05
2023-04-16T21:53:37.162Z,6.18
2023-04-16T21:56:06.561Z,6.22
2023-04-16T21:58:35.566Z,6.39
2023-04-16T22:05:26.277Z,6.32
2023-04-16T22:07:58.173Z,6.50
2023-04-16T22:14:59.712Z,6.34
2023-04-16T22:17:34.504Z,6.22
2023-04-16T22:24:25.371Z,6.38
2023-04-16T22:26:57.542Z,6.32
2023-04-16T22:29:27.700Z,6.42
2023-04-16T22:31:57.219Z,6.53
2023-04-16T22:34:26.563Z,6.62
2023-04-16T22:36:56.591Z,6.60
2023-04-16T22:39:28.950Z,6.58
2023-04-16T22:41:58.245Z,6.55
2023-04-16T22:44:27.448Z,6.63
2023-04-16T22:46:56.435Z,6.41
2023-04-16T22:49:25.322Z,6.26
2023-04-16T22:51:54.426Z,6.19
2023-04-16T22:54:23.723Z,5.98
2023-04-16T22:56:54.452Z,5.93
2023-04-16T22:59:23.438Z,5.96
2023-04-16T23:01:53.277Z,5.90
2023-04-16T23:04:22.475Z,5.92
2023-04-16T23:11:03.549Z,5.86
2023-04-16T23:13:34.084Z,6.13
2023-04-16T23:20:10.466Z,5.98
2023-04-16T23:22:39.765Z,6.00
2023-04-16T23:25:10.292Z,5.98
2023-04-16T23:27:39.490Z,5.89
2023-04-16T23:30:14.111Z,5.99
2023-04-16T23:32:46.967Z,5.97
2023-04-16T23:38:49.081Z,6.02
2023-04-16T23:45:37.700Z,5.90
2023-04-16T23:48:07.203Z,5.85
2023-04-16T23:54:54.207Z,5.88
